createdAt,value
2019-01-17T00:00:54.760Z,1015.47
2019-01-17T00:01:54.745Z,1015.44
2019-01-17T00:02:54.730Z,1015.47
2019-01-17T00:03:54.715Z,1015.46
2019-01-17T00:04:54.700Z,1015.41
2019-01-17T00:05:54.687Z,1015.39
2019-01-17T00:06:54.673Z,1015.44
2019-01-17T00:07:54.657Z,1015.44
2019-01-17T00:08:54.644Z,1015.39
2019-01-17T00:09:54.629Z,1015.34
2019-01-17T00:10:54.615Z,1015.32
2019-01-17T00:11:54.600Z,1015.26
2019-01-17T00:12:54.586Z,1015.23
2019-01-17T00:13:54.571Z,1015.2
2019-01-17T00:14:54.555Z,1015.2
2019-01-17T00:15:54.541Z,1015.19
2019-01-17T00:16:54.526Z,1015.28
2019-01-17T00:17:54.513Z,1015.26
2019-01-17T00:18:54.498Z,1015.27
2019-01-17T00:19:54.484Z,1015.23
2019-01-17T00:20:54.470Z,1015.22
2019-01-17T00:21:54.456Z,1015.2
2019-01-17T00:22:54.439Z,1015.22
2019-01-17T00:23:54.426Z,1015.25
2019-01-17T00:24:54.412Z,1015.24
2019-01-17T00:25:54.397Z,1015.3
2019-01-17T00:26:54.384Z,1015.29
2019-01-17T00:27:54.367Z,1015.3
2019-01-17T00:28:54.355Z,1015.28
2019-01-17T00:29:54.339Z,1015.28
2019-01-17T00:30:54.325Z,1015.22
2019-01-17T00:31:54.311Z,1015.18
2019-01-17T00:32:54.297Z,1015.15
2019-01-17T00:33:54.281Z,1015.14
2019-01-17T00:34:54.267Z,1015.17
2019-01-17T00:35:54.252Z,1015.26
2019-01-17T00:36:54.238Z,1015.22
2019-01-17T00:37:54.223Z,1015.18
2019-01-17T00:38:54.208Z,1015.13
2019-01-17T00:39:54.195Z,1015.11
2019-01-17T00:40:54.178Z,1015.11
2019-01-17T00:41:54.166Z,1015.08
2019-01-17T00:42:54.151Z,1015.03
2019-01-17T00:43:54.137Z,1015.01
2019-01-17T00:44:54.123Z,1015
2019-01-17T00:45:54.109Z,1015.04
2019-01-17T00:46:54.092Z,1015.06
2019-01-17T00:47:54.077Z,1015.06
2019-01-17T00:48:54.064Z,1015.07
2019-01-17T00:49:54.052Z,1014.97
2019-01-17T00:50:54.045Z,1014.96
2019-01-17T00:51:54.019Z,1014.95
2019-01-17T00:52:54.005Z,1014.92
2019-01-17T00:53:53.991Z,1014.86
2019-01-17T00:54:53.978Z,1014.87
2019-01-17T00:55:53.962Z,1014.9
2019-01-17T00:56:53.948Z,1014.88
2019-01-17T00:57:53.934Z,1014.84
2019-01-17T00:58:53.935Z,1014.8
2019-01-17T00:59:53.904Z,1014.67
2019-01-17T01:00:53.891Z,1014.62
2019-01-17T01:01:53.876Z,1014.58
2019-01-17T01:02:53.862Z,1014.55
2019-01-17T01:03:53.848Z,1014.61
2019-01-17T01:04:53.834Z,1014.6
2019-01-17T01:05:53.821Z,1014.58
2019-01-17T01:06:53.805Z,1014.58
2019-01-17T01:07:53.790Z,1014.56
2019-01-17T01:08:53.777Z,1014.5
2019-01-17T01:09:53.761Z,1014.44
2019-01-17T01:10:53.748Z,1014.46
2019-01-17T01:11:53.734Z,1014.44
2019-01-17T01:12:53.720Z,1014.42
2019-01-17T01:13:53.707Z,1014.38
2019-01-17T01:14:53.691Z,1014.41
2019-01-17T01:15:53.677Z,1014.41
2019-01-17T01:16:53.662Z,1014.37
2019-01-17T01:17:53.648Z,1014.37
2019-01-17T01:18:53.633Z,1014.4
2019-01-17T01:19:53.620Z,1014.47
2019-01-17T01:20:53.605Z,1014.52
2019-01-17T01:21:53.591Z,1014.55
2019-01-17T01:22:53.577Z,1014.54
2019-01-17T01:23:53.563Z,1014.61
2019-01-17T01:24:53.549Z,1014.59
2019-01-17T01:25:53.534Z,1014.61
2019-01-17T01:26:53.520Z,1014.61
2019-01-17T01:27:53.507Z,1014.67
2019-01-17T01:28:53.493Z,1014.7
2019-01-17T01:29:53.478Z,1014.72
2019-01-17T01:30:53.463Z,1014.71
2019-01-17T01:31:53.447Z,1014.74
2019-01-17T01:32:53.436Z,1014.74
2019-01-17T01:33:53.420Z,1014.73
2019-01-17T01:34:53.406Z,1014.75
2019-01-17T01:35:53.391Z,1014.67
2019-01-17T01:36:53.377Z,1014.66
2019-01-17T01:37:53.365Z,1014.66
2019-01-17T01:38:53.348Z,1014.65
2019-01-17T01:39:53.333Z,1014.64
2019-01-17T01:40:53.322Z,1014.67
2019-01-17T01:41:53.308Z,1014.69
2019-01-17T01:42:53.291Z,1014.68
2019-01-17T01:43:53.276Z,1014.67
2019-01-17T01:44:53.263Z,1014.65
2019-01-17T01:45:53.249Z,1014.63
2019-01-17T01:46:53.234Z,1014.61
2019-01-17T01:47:53.220Z,1014.58
2019-01-17T01:48:53.206Z,1014.6
2019-01-17T01:49:53.190Z,1014.61
2019-01-17T01:50:53.176Z,1014.56
2019-01-17T01:51:53.162Z,1014.52
2019-01-17T01:52:53.148Z,1014.53
2019-01-17T01:53:53.133Z,1014.46
2019-01-17T01:54:53.119Z,1014.43
2019-01-17T01:55:53.105Z,1014.52
2019-01-17T01:56:53.091Z,1014.54
2019-01-17T01:57:53.075Z,1014.53
2019-01-17T01:58:53.062Z,1014.45
2019-01-17T01:59:53.047Z,1014.47
2019-01-17T02:00:53.032Z,1014.52
2019-01-17T02:01:53.019Z,1014.59
2019-01-17T02:02:53.003Z,1014.62
2019-01-17T02:03:52.990Z,1014.63
2019-01-17T02:04:52.973Z,1014.6
2019-01-17T02:05:52.960Z,1014.61
2019-01-17T02:06:52.945Z,1014.62
2019-01-17T02:07:52.932Z,1014.65
2019-01-17T02:08:52.916Z,1014.59
2019-01-17T02:09:52.901Z,1014.56
2019-01-17T02:10:52.888Z,1014.53
2019-01-17T02:11:52.875Z,1014.48
2019-01-17T02:12:52.859Z,1014.5
2019-01-17T02:13:52.846Z,1014.44
2019-01-17T02:14:52.830Z,1014.37
2019-01-17T02:15:52.815Z,1014.34
2019-01-17T02:16:52.800Z,1014.31
2019-01-17T02:17:52.786Z,1014.33
2019-01-17T02:18:52.773Z,1014.35
2019-01-17T02:19:52.758Z,1014.36
2019-01-17T02:20:52.743Z,1014.34
2019-01-17T02:21:52.729Z,1014.28
2019-01-17T02:22:52.715Z,1014.19
2019-01-17T02:23:52.700Z,1014.2
2019-01-17T02:24:52.686Z,1014.18
2019-01-17T02:25:52.674Z,1014.25
2019-01-17T02:26:52.657Z,1014.29
2019-01-17T02:27:52.642Z,1014.23
2019-01-17T02:28:52.628Z,1014.22
2019-01-17T02:29:52.615Z,1014.18
2019-01-17T02:30:52.599Z,1014.17
2019-01-17T02:31:52.584Z,1014.18
2019-01-17T02:32:52.571Z,1014.25
2019-01-17T02:33:52.556Z,1014.34
2019-01-17T02:34:52.542Z,1014.33
2019-01-17T02:35:52.529Z,1014.29
2019-01-17T02:36:52.514Z,1014.23
2019-01-17T02:37:52.499Z,1014.12
2019-01-17T02:38:52.484Z,1014.12
2019-01-17T02:39:52.469Z,1014.11
2019-01-17T02:40:52.459Z,1014.14
2019-01-17T02:41:52.442Z,1014.14
2019-01-17T02:42:52.428Z,1014.09
2019-01-17T02:43:52.415Z,1014.08
2019-01-17T02:44:52.399Z,1014.09
2019-01-17T02:45:52.385Z,1014.12
2019-01-17T02:46:52.371Z,1014.19
2019-01-17T02:47:52.356Z,1014.23
2019-01-17T02:48:52.341Z,1014.24
2019-01-17T02:49:52.327Z,1014.21
2019-01-17T02:50:52.313Z,1014.18
2019-01-17T02:51:52.303Z,1014.14
2019-01-17T02:52:52.285Z,1014.06
2019-01-17T02:53:52.274Z,1013.91
2019-01-17T02:54:52.257Z,1013.98
2019-01-17T02:55:52.242Z,1013.95
2019-01-17T02:56:52.233Z,1013.87
2019-01-17T02:57:52.212Z,1013.81
2019-01-17T02:58:52.198Z,1013.8
2019-01-17T02:59:52.182Z,1013.68
2019-01-17T03:00:52.170Z,1013.59
2019-01-17T03:01:52.155Z,1013.51
2019-01-17T03:02:52.141Z,1013.44
2019-01-17T03:03:52.126Z,1013.46
2019-01-17T03:04:52.114Z,1013.46
2019-01-17T03:05:52.099Z,1013.43
2019-01-17T03:06:52.082Z,1013.39
2019-01-17T03:07:52.073Z,1013.26
2019-01-17T03:08:52.055Z,1013.19
2019-01-17T03:09:52.043Z,1013.16
2019-01-17T03:10:52.026Z,1013.19
2019-01-17T03:11:52.015Z,1013.22
2019-01-17T03:12:51.998Z,1013.22
2019-01-17T03:13:51.984Z,1013.22
2019-01-17T03:14:51.971Z,1013.26
2019-01-17T03:15:51.957Z,1013.23
2019-01-17T03:16:51.944Z,1013.23
2019-01-17T03:17:51.931Z,1013.17
2019-01-17T03:18:51.917Z,1013.11
2019-01-17T03:19:51.901Z,1013.08
2019-01-17T03:20:51.888Z,1013.03
2019-01-17T03:21:51.872Z,1013.07
2019-01-17T03:22:51.859Z,1013.13
2019-01-17T03:23:51.847Z,1013.07
2019-01-17T03:24:51.832Z,1012.99
2019-01-17T03:25:51.820Z,1012.94
2019-01-17T03:26:51.806Z,1012.9
2019-01-17T03:27:52.093Z,1012.86
2019-01-17T03:28:51.778Z,1012.81
2019-01-17T03:29:51.765Z,1012.85
2019-01-17T03:30:51.763Z,1012.81
2019-01-17T03:31:51.737Z,1012.81
2019-01-17T03:32:51.872Z,1012.81
2019-01-17T03:33:51.708Z,1012.78
2019-01-17T03:34:51.697Z,1012.78
2019-01-17T03:35:51.681Z,1012.79
2019-01-17T03:36:51.667Z,1012.77
2019-01-17T03:37:51.656Z,1012.82
2019-01-17T03:38:51.643Z,1012.84
2019-01-17T03:39:51.630Z,1012.77
2019-01-17T03:40:51.616Z,1012.81
2019-01-17T03:41:51.605Z,1012.77
2019-01-17T03:42:51.588Z,1012.73
2019-01-17T03:43:51.575Z,1012.74
2019-01-17T03:44:51.561Z,1012.73
2019-01-17T03:45:51.547Z,1012.73
2019-01-17T03:46:51.535Z,1012.67
2019-01-17T03:47:51.522Z,1012.66
2019-01-17T03:48:51.509Z,1012.66
2019-01-17T03:49:51.494Z,1012.64
2019-01-17T03:50:51.482Z,1012.59
2019-01-17T03:51:51.469Z,1012.48
2019-01-17T03:52:51.457Z,1012.46
2019-01-17T03:53:51.444Z,1012.47
2019-01-17T03:54:53.946Z,1012.46
2019-01-17T03:55:51.415Z,1012.47
2019-01-17T03:56:51.403Z,1012.4
2019-01-17T03:57:51.387Z,1012.46
2019-01-17T03:58:51.376Z,1012.46
2019-01-17T03:59:51.362Z,1012.44
2019-01-17T04:00:51.351Z,1012.49
2019-01-17T04:01:51.336Z,1012.5
2019-01-17T04:02:51.323Z,1012.52
2019-01-17T04:03:51.309Z,1012.59
2019-01-17T04:04:51.298Z,1012.59
2019-01-17T04:05:51.285Z,1012.6
2019-01-17T04:06:51.270Z,1012.6
2019-01-17T04:07:51.257Z,1012.55
2019-01-17T04:08:51.243Z,1012.46
2019-01-17T04:09:51.239Z,1012.45
2019-01-17T04:10:51.218Z,1012.43
2019-01-17T04:11:51.205Z,1012.41
2019-01-17T04:12:51.195Z,1012.48
2019-01-17T04:13:51.177Z,1012.42
2019-01-17T04:14:51.167Z,1012.41
2019-01-17T04:15:51.153Z,1012.39
2019-01-17T04:16:51.140Z,1012.39
2019-01-17T04:17:51.127Z,1012.41
2019-01-17T04:18:51.115Z,1012.43
2019-01-17T04:19:51.100Z,1012.48
2019-01-17T04:20:51.087Z,1012.43
2019-01-17T04:21:51.074Z,1012.46
2019-01-17T04:22:51.062Z,1012.51
2019-01-17T04:23:51.048Z,1012.43
2019-01-17T04:24:57.103Z,1012.39
2019-01-17T04:25:51.023Z,1012.4
2019-01-17T04:26:51.009Z,1012.4
2019-01-17T04:27:50.996Z,1012.39
2019-01-17T04:28:50.983Z,1012.4
2019-01-17T04:29:50.971Z,1012.41
2019-01-17T04:30:50.957Z,1012.43
2019-01-17T04:31:50.945Z,1012.42
2019-01-17T04:32:50.931Z,1012.41
2019-01-17T04:33:50.921Z,1012.34
2019-01-17T04:34:50.905Z,1012.35
2019-01-17T04:35:50.893Z,1012.33
2019-01-17T04:36:50.881Z,1012.32
2019-01-17T04:37:50.868Z,1012.26
2019-01-17T04:38:50.853Z,1012.28
2019-01-17T04:39:50.841Z,1012.33
2019-01-17T04:40:50.828Z,1012.33
2019-01-17T04:41:50.814Z,1012.37
2019-01-17T04:42:50.802Z,1012.44
2019-01-17T04:43:50.789Z,1012.42
2019-01-17T04:44:50.777Z,1012.42
2019-01-17T04:45:50.762Z,1012.29
2019-01-17T04:46:50.751Z,1012.46
2019-01-17T04:47:50.744Z,1012.46
2019-01-17T04:48:50.723Z,1012.53
2019-01-17T04:49:50.709Z,1012.52
2019-01-17T04:50:50.698Z,1012.5
2019-01-17T04:51:50.686Z,1012.44
2019-01-17T04:52:50.673Z,1012.38
2019-01-17T04:53:50.658Z,1012.41
2019-01-17T04:54:50.648Z,1012.44
2019-01-17T04:55:50.634Z,1012.41
2019-01-17T04:56:50.620Z,1012.33
2019-01-17T04:57:50.607Z,1012.35
2019-01-17T04:58:50.596Z,1012.4
2019-01-17T04:59:50.583Z,1012.38
2019-01-17T05:00:50.569Z,1012.43
2019-01-17T05:01:50.557Z,1012.37
2019-01-17T05:02:50.544Z,1012.41
2019-01-17T05:03:50.531Z,1012.37
2019-01-17T05:04:50.518Z,1012.4
2019-01-17T05:05:50.505Z,1012.28
2019-01-17T05:06:50.494Z,1012.32
2019-01-17T05:07:50.479Z,1012.3
2019-01-17T05:08:50.466Z,1012.29
2019-01-17T05:09:50.455Z,1012.35
2019-01-17T05:10:50.440Z,1012.29
2019-01-17T05:11:50.429Z,1012.29
2019-01-17T05:12:50.415Z,1012.28
2019-01-17T05:13:50.401Z,1012.31
2019-01-17T05:14:50.389Z,1012.29
2019-01-17T05:15:50.378Z,1012.24
2019-01-17T05:16:50.364Z,1012.24
2019-01-17T05:17:50.352Z,1012.22
2019-01-17T05:18:50.338Z,1012.2
2019-01-17T05:19:50.339Z,1012.24
2019-01-17T05:20:50.313Z,1012.26
2019-01-17T05:21:50.301Z,1012.26
2019-01-17T05:22:50.289Z,1012.27
2019-01-17T05:23:50.275Z,1012.31
2019-01-17T05:24:50.262Z,1012.28
2019-01-17T05:25:50.250Z,1012.32
2019-01-17T05:26:50.236Z,1012.31
2019-01-17T05:27:50.223Z,1012.29
2019-01-17T05:28:50.211Z,1012.31
2019-01-17T05:29:50.198Z,1012.29
2019-01-17T05:30:50.185Z,1012.29
2019-01-17T05:31:50.174Z,1012.32
2019-01-17T05:32:50.162Z,1012.29
2019-01-17T05:33:50.147Z,1012.29
2019-01-17T05:34:50.135Z,1012.27
2019-01-17T05:35:50.124Z,1012.29
2019-01-17T05:36:50.110Z,1012.33
2019-01-17T05:37:50.095Z,1012.3
2019-01-17T05:38:50.084Z,1012.27
2019-01-17T05:39:50.072Z,1012.25
2019-01-17T05:40:50.058Z,1012.23
2019-01-17T05:41:50.046Z,1012.24
2019-01-17T05:42:50.036Z,1012.27
2019-01-17T05:43:50.021Z,1012.26
2019-01-17T05:44:50.008Z,1012.26
2019-01-17T05:45:49.996Z,1012.22
2019-01-17T05:46:49.985Z,1012.2
2019-01-17T05:47:49.969Z,1012.28
2019-01-17T05:48:49.957Z,1012.27
2019-01-17T05:49:49.946Z,1012.28
2019-01-17T05:50:49.933Z,1012.31
2019-01-17T05:51:49.921Z,1012.32
2019-01-17T05:52:49.908Z,1012.3
2019-01-17T05:53:49.897Z,1012.34
2019-01-17T05:54:49.882Z,1012.29
2019-01-17T05:55:49.869Z,1012.32
2019-01-17T05:56:49.860Z,1012.31
2019-01-17T05:57:49.846Z,1012.29
2019-01-17T05:58:49.832Z,1012.28
2019-01-17T05:59:49.822Z,1012.35
2019-01-17T06:00:49.814Z,1012.29
2019-01-17T06:01:49.794Z,1012.33
2019-01-17T06:02:49.812Z,1012.32
2019-01-17T06:03:49.770Z,1012.31
2019-01-17T06:04:49.760Z,1012.33
2019-01-17T06:05:49.745Z,1012.32
2019-01-17T06:06:49.731Z,1012.32
2019-01-17T06:07:49.723Z,1012.33
2019-01-17T06:08:49.708Z,1012.31
2019-01-17T06:09:49.693Z,1012.3
2019-01-17T06:10:49.682Z,1012.25
2019-01-17T06:11:49.670Z,1012.3
2019-01-17T06:12:49.657Z,1012.28
2019-01-17T06:13:49.649Z,1012.32
2019-01-17T06:14:49.641Z,1012.39
2019-01-17T06:15:49.619Z,1012.36
2019-01-17T06:16:49.606Z,1012.31
2019-01-17T06:17:49.594Z,1012.25
2019-01-17T06:18:49.582Z,1012.27
2019-01-17T06:19:49.570Z,1012.28
2019-01-17T06:20:49.557Z,1012.28
2019-01-17T06:21:49.543Z,1012.19
2019-01-17T06:22:49.532Z,1012.31
2019-01-17T06:23:49.519Z,1012.35
2019-01-17T06:24:49.507Z,1012.3
2019-01-17T06:25:49.495Z,1012.31
2019-01-17T06:26:49.481Z,1012.34
2019-01-17T06:27:49.467Z,1012.32
2019-01-17T06:28:49.455Z,1012.39
2019-01-17T06:29:49.443Z,1012.41
2019-01-17T06:30:49.432Z,1012.45
2019-01-17T06:31:49.419Z,1012.44
2019-01-17T06:32:49.406Z,1012.37
2019-01-17T06:33:49.394Z,1012.48
2019-01-17T06:34:49.381Z,1012.45
2019-01-17T06:35:49.368Z,1012.47
2019-01-17T06:36:49.356Z,1012.49
2019-01-17T06:37:49.346Z,1012.54
2019-01-17T06:38:49.333Z,1012.59
2019-01-17T06:39:49.317Z,1012.53
2019-01-17T06:40:49.305Z,1012.52
2019-01-17T06:41:49.294Z,1012.52
2019-01-17T06:42:49.280Z,1012.59
2019-01-17T06:43:49.268Z,1012.56
2019-01-17T06:44:49.256Z,1012.61
2019-01-17T06:45:49.242Z,1012.63
2019-01-17T06:46:49.229Z,1012.62
2019-01-17T06:47:49.218Z,1012.62
2019-01-17T06:48:49.206Z,1012.62
2019-01-17T06:49:49.193Z,1012.66
2019-01-17T06:50:49.180Z,1012.65
2019-01-17T06:51:49.167Z,1012.69
2019-01-17T06:52:49.155Z,1012.66
2019-01-17T06:53:49.142Z,1012.61
2019-01-17T06:54:49.131Z,1012.67
2019-01-17T06:55:49.118Z,1012.63
2019-01-17T06:56:49.106Z,1012.7
2019-01-17T06:57:49.093Z,1012.68
2019-01-17T06:58:49.079Z,1012.63
2019-01-17T06:59:49.068Z,1012.63
2019-01-17T07:00:49.055Z,1012.61
2019-01-17T07:01:49.043Z,1012.63
2019-01-17T07:02:49.030Z,1012.65
2019-01-17T07:03:49.025Z,1012.7
2019-01-17T07:04:49.004Z,1012.71
2019-01-17T07:05:48.992Z,1012.76
2019-01-17T07:06:48.981Z,1012.77
2019-01-17T07:07:48.968Z,1012.8
2019-01-17T07:08:48.956Z,1012.78
2019-01-17T07:09:48.945Z,1012.73
2019-01-17T07:10:48.930Z,1012.69
2019-01-17T07:11:48.918Z,1012.74
2019-01-17T07:12:48.906Z,1012.7
2019-01-17T07:13:48.894Z,1012.66
2019-01-17T07:14:48.880Z,1012.71
2019-01-17T07:15:48.868Z,1012.69
2019-01-17T07:16:49.105Z,1012.66
2019-01-17T07:17:48.844Z,1012.66
2019-01-17T07:18:48.830Z,1012.6
2019-01-17T07:19:48.818Z,1012.55
2019-01-17T07:20:48.806Z,1012.64
2019-01-17T07:21:48.794Z,1012.63
2019-01-17T07:22:48.780Z,1012.7
2019-01-17T07:23:48.768Z,1012.75
2019-01-17T07:24:48.755Z,1012.78
2019-01-17T07:25:48.745Z,1012.78
2019-01-17T07:26:48.731Z,1012.85
2019-01-17T07:27:48.721Z,1012.92
2019-01-17T07:28:48.706Z,1012.93
2019-01-17T07:29:48.694Z,1012.97
2019-01-17T07:30:48.683Z,1012.91
2019-01-17T07:31:48.670Z,1012.97
2019-01-17T07:32:48.659Z,1012.96
2019-01-17T07:33:48.648Z,1012.96
2019-01-17T07:34:48.632Z,1012.96
2019-01-17T07:35:48.620Z,1012.98
2019-01-17T07:36:48.607Z,1012.99
2019-01-17T07:37:48.594Z,1012.99
2019-01-17T07:38:48.582Z,1012.97
2019-01-17T07:39:48.570Z,1012.98
2019-01-17T07:40:48.557Z,1013.01
2019-01-17T07:41:48.547Z,1012.99
2019-01-17T07:42:48.534Z,1012.96
2019-01-17T07:43:48.524Z,1012.94
2019-01-17T07:44:48.512Z,1012.98
2019-01-17T07:45:48.497Z,1012.91
2019-01-17T07:46:48.486Z,1012.94
2019-01-17T07:47:48.471Z,1012.91
2019-01-17T07:48:48.460Z,1012.94
2019-01-17T07:49:48.446Z,1012.89
2019-01-17T07:50:48.436Z,1012.89
2019-01-17T07:51:48.424Z,1012.9
2019-01-17T07:52:48.410Z,1012.9
2019-01-17T07:53:48.398Z,1012.89
2019-01-17T07:54:48.385Z,1012.92
2019-01-17T07:55:48.373Z,1012.91
2019-01-17T07:56:48.361Z,1012.82
2019-01-17T07:57:48.350Z,1012.88
2019-01-17T07:58:48.337Z,1012.91
2019-01-17T07:59:48.325Z,1012.91
2019-01-17T08:00:48.315Z,1012.89
2019-01-17T08:01:48.300Z,1012.95
2019-01-17T08:02:48.323Z,1012.95
2019-01-17T08:03:48.275Z,1012.95
2019-01-17T08:04:48.264Z,1013.01
2019-01-17T08:05:48.251Z,1013.03
2019-01-17T08:06:48.239Z,1013.08
2019-01-17T08:07:48.226Z,1013.08
2019-01-17T08:08:48.214Z,1013.11
2019-01-17T08:09:48.203Z,1013.16
2019-01-17T08:10:48.190Z,1013.12
2019-01-17T08:11:48.179Z,1013.1
2019-01-17T08:12:48.167Z,1013.11
2019-01-17T08:13:48.157Z,1013.15
2019-01-17T08:14:48.141Z,1013.17
2019-01-17T08:15:48.129Z,1013.18
2019-01-17T08:16:48.118Z,1013.16
2019-01-17T08:17:48.106Z,1013.13
2019-01-17T08:18:48.092Z,1013.12
2019-01-17T08:19:48.083Z,1013.14
2019-01-17T08:20:48.067Z,1013.06
2019-01-17T08:21:48.055Z,1013.06
2019-01-17T08:22:48.048Z,1013.02
2019-01-17T08:23:48.034Z,1012.97
2019-01-17T08:24:48.020Z,1013.01
2019-01-17T08:25:53.902Z,1012.96
2019-01-17T08:26:47.996Z,1012.91
2019-01-17T08:27:47.985Z,1012.95
2019-01-17T08:28:47.972Z,1012.94
2019-01-17T08:29:47.961Z,1012.95
2019-01-17T08:30:47.949Z,1012.98
2019-01-17T08:31:47.936Z,1013
2019-01-17T08:32:47.924Z,1013
2019-01-17T08:33:47.913Z,1012.97
2019-01-17T08:34:47.902Z,1013.02
2019-01-17T08:35:47.890Z,1012.96
2019-01-17T08:36:47.879Z,1013
2019-01-17T08:37:47.866Z,1013
2019-01-17T08:38:47.854Z,1013.01
2019-01-17T08:39:47.841Z,1012.98
2019-01-17T08:40:47.829Z,1012.94
2019-01-17T08:41:47.818Z,1012.89
2019-01-17T08:42:47.805Z,1012.79
2019-01-17T08:43:47.794Z,1012.8
2019-01-17T08:44:47.782Z,1012.77
2019-01-17T08:45:47.771Z,1012.7
2019-01-17T08:46:47.760Z,1012.71
2019-01-17T08:47:47.748Z,1012.69
2019-01-17T08:48:47.737Z,1012.67
2019-01-17T08:49:47.726Z,1012.67
2019-01-17T08:50:47.713Z,1012.69
2019-01-17T08:51:47.701Z,1012.68
2019-01-17T08:52:47.689Z,1012.67
2019-01-17T08:53:47.677Z,1012.59
2019-01-17T08:54:47.668Z,1012.55
2019-01-17T08:55:47.655Z,1012.54
2019-01-17T08:56:47.644Z,1012.54
2019-01-17T08:57:47.632Z,1012.61
2019-01-17T08:58:47.622Z,1012.56
2019-01-17T08:59:47.611Z,1012.5
2019-01-17T09:00:47.600Z,1012.54
2019-01-17T09:01:47.589Z,1012.57
2019-01-17T09:02:47.576Z,1012.49
2019-01-17T09:03:47.566Z,1012.54
2019-01-17T09:04:47.554Z,1012.53
2019-01-17T09:05:47.543Z,1012.55
2019-01-17T09:06:47.533Z,1012.54
2019-01-17T09:07:47.522Z,1012.51
2019-01-17T09:08:47.509Z,1012.49
2019-01-17T09:09:47.498Z,1012.47
2019-01-17T09:10:47.489Z,1012.48
2019-01-17T09:11:47.477Z,1012.54
2019-01-17T09:12:47.466Z,1012.51
2019-01-17T09:13:47.456Z,1012.46
2019-01-17T09:14:47.444Z,1012.53
2019-01-17T09:15:47.432Z,1012.52
2019-01-17T09:16:47.721Z,1012.54
2019-01-17T09:17:47.411Z,1012.53
2019-01-17T09:18:47.401Z,1012.49
2019-01-17T09:19:47.389Z,1012.45
2019-01-17T09:20:47.377Z,1012.45
2019-01-17T09:21:47.367Z,1012.44
2019-01-17T09:22:47.357Z,1012.44
2019-01-17T09:23:47.346Z,1012.41
2019-01-17T09:24:47.336Z,1012.41
2019-01-17T09:25:47.325Z,1012.42
2019-01-17T09:26:47.312Z,1012.41
2019-01-17T09:27:47.302Z,1012.44
2019-01-17T09:28:47.292Z,1012.44
2019-01-17T09:29:47.281Z,1012.43
2019-01-17T09:30:47.271Z,1012.39
2019-01-17T09:31:47.263Z,1012.37
2019-01-17T09:32:47.249Z,1012.38
2019-01-17T09:33:47.238Z,1012.39
2019-01-17T09:34:47.228Z,1012.37
2019-01-17T09:35:47.221Z,1012.37
2019-01-17T09:36:47.207Z,1012.34
2019-01-17T09:37:47.194Z,1012.33
2019-01-17T09:38:47.186Z,1012.36
2019-01-17T09:39:47.176Z,1012.36
2019-01-17T09:40:47.166Z,1012.4
2019-01-17T09:41:47.154Z,1012.39
2019-01-17T09:42:47.143Z,1012.4
2019-01-17T09:43:47.133Z,1012.52
2019-01-17T09:44:47.122Z,1012.56
2019-01-17T09:45:47.111Z,1012.5
2019-01-17T09:46:47.101Z,1012.47
2019-01-17T09:47:47.091Z,1012.46
2019-01-17T09:48:47.080Z,1012.46
2019-01-17T09:49:47.070Z,1012.4
2019-01-17T09:50:47.063Z,1012.42
2019-01-17T09:51:47.050Z,1012.37
2019-01-17T09:52:47.039Z,1012.32
2019-01-17T09:53:47.029Z,1012.29
2019-01-17T09:54:47.019Z,1012.2
2019-01-17T09:55:47.007Z,1012.15
2019-01-17T09:56:46.997Z,1012.09
2019-01-17T09:57:46.987Z,1012.18
2019-01-17T09:58:46.978Z,1012.18
2019-01-17T09:59:46.967Z,1012.08
2019-01-17T10:00:46.957Z,1012.05
2019-01-17T10:01:46.946Z,1011.94
2019-01-17T10:02:46.938Z,1011.81
2019-01-17T10:03:46.927Z,1011.84
2019-01-17T10:04:46.917Z,1011.73
2019-01-17T10:05:46.916Z,1011.72
2019-01-17T10:06:46.896Z,1011.62
2019-01-17T10:07:46.886Z,1011.6
2019-01-17T10:08:46.877Z,1011.61
2019-01-17T10:09:46.867Z,1011.63
2019-01-17T10:10:46.858Z,1011.68
2019-01-17T10:11:46.849Z,1011.78
2019-01-17T10:12:46.837Z,1011.92
2019-01-17T10:13:46.828Z,1011.96
2019-01-17T10:14:46.819Z,1012.03
2019-01-17T10:15:46.809Z,1012.08
2019-01-17T10:16:46.800Z,1012.16
2019-01-17T10:17:46.790Z,1012.13
2019-01-17T10:18:46.779Z,1012.02
2019-01-17T10:19:46.771Z,1011.92
2019-01-17T10:20:46.760Z,1011.84
2019-01-17T10:21:46.753Z,1011.74
2019-01-17T10:22:46.741Z,1011.62
2019-01-17T10:23:46.732Z,1011.56
2019-01-17T10:24:46.722Z,1011.58
2019-01-17T10:25:46.711Z,1011.66
2019-01-17T10:26:46.702Z,1011.55
2019-01-17T10:27:46.693Z,1011.56
2019-01-17T10:28:46.683Z,1011.59
2019-01-17T10:29:46.673Z,1011.61
2019-01-17T10:30:46.663Z,1011.58
2019-01-17T10:31:46.658Z,1011.61
2019-01-17T10:32:46.644Z,1011.61
2019-01-17T10:33:46.634Z,1011.6
2019-01-17T10:34:46.627Z,1011.55
2019-01-17T10:35:46.618Z,1011.63
2019-01-17T10:36:46.608Z,1011.68
2019-01-17T10:37:46.599Z,1011.68
2019-01-17T10:38:46.590Z,1011.61
2019-01-17T10:39:46.580Z,1011.62
2019-01-17T10:40:46.570Z,1011.59
2019-01-17T10:41:46.561Z,1011.59
2019-01-17T10:42:46.551Z,1011.55
2019-01-17T10:43:46.541Z,1011.61
2019-01-17T10:44:46.532Z,1011.61
2019-01-17T10:45:46.523Z,1011.62
2019-01-17T10:46:46.513Z,1011.61
2019-01-17T10:47:46.504Z,1011.64
2019-01-17T10:48:46.495Z,1011.64
2019-01-17T10:49:46.486Z,1011.62
2019-01-17T10:50:46.476Z,1011.59
2019-01-17T10:51:46.466Z,1011.6
2019-01-17T10:52:46.457Z,1011.58
2019-01-17T10:53:46.448Z,1011.6
2019-01-17T10:54:46.439Z,1011.62
2019-01-17T10:55:46.427Z,1011.59
2019-01-17T10:56:46.420Z,1011.67
2019-01-17T10:57:46.408Z,1011.71
2019-01-17T10:58:46.399Z,1011.78
2019-01-17T10:59:46.393Z,1011.84
2019-01-17T11:00:46.381Z,1011.84
2019-01-17T11:01:46.370Z,1011.85
2019-01-17T11:02:46.360Z,1011.88
2019-01-17T11:03:46.350Z,1011.75
2019-01-17T11:04:46.341Z,1011.61
2019-01-17T11:05:46.332Z,1011.61
2019-01-17T11:06:46.321Z,1011.61
2019-01-17T11:07:46.313Z,1011.58
2019-01-17T11:08:46.303Z,1011.6
2019-01-17T11:09:46.294Z,1011.61
2019-01-17T11:10:46.284Z,1011.63
2019-01-17T11:11:46.274Z,1011.6
2019-01-17T11:12:46.264Z,1011.53
2019-01-17T11:13:46.253Z,1011.49
2019-01-17T11:14:46.244Z,1011.41
2019-01-17T11:15:46.235Z,1011.49
2019-01-17T11:16:46.223Z,1011.43
2019-01-17T11:17:46.217Z,1011.45
2019-01-17T11:18:46.207Z,1011.52
2019-01-17T11:19:46.196Z,1011.52
2019-01-17T11:20:46.187Z,1011.51
2019-01-17T11:21:46.176Z,1011.53
2019-01-17T11:22:46.168Z,1011.53
2019-01-17T11:23:46.157Z,1011.5
2019-01-17T11:24:46.147Z,1011.49
2019-01-17T11:25:46.138Z,1011.46
2019-01-17T11:26:46.134Z,1011.44
2019-01-17T11:27:46.119Z,1011.36
2019-01-17T11:28:46.118Z,1011.32
2019-01-17T11:29:46.100Z,1011.31
2019-01-17T11:30:46.091Z,1011.27
2019-01-17T11:31:46.082Z,1011.2
2019-01-17T11:32:46.072Z,1011.17
2019-01-17T11:33:46.063Z,1011.14
2019-01-17T11:34:46.052Z,1011.14
2019-01-17T11:35:46.042Z,1011.08
2019-01-17T11:36:46.033Z,1011.08
2019-01-17T11:37:46.025Z,1011.08
2019-01-17T11:38:46.015Z,1011.06
2019-01-17T11:39:46.006Z,1011.07
2019-01-17T11:40:45.997Z,1011.02
2019-01-17T11:41:45.985Z,1011.03
2019-01-17T11:42:45.977Z,1010.99
2019-01-17T11:43:45.969Z,1011.06
2019-01-17T11:44:45.961Z,1011.07
2019-01-17T11:45:45.951Z,1011.1
2019-01-17T11:46:45.940Z,1010.97
2019-01-17T11:47:45.933Z,1010.93
2019-01-17T11:48:45.924Z,1010.91
2019-01-17T11:49:45.912Z,1010.85
2019-01-17T11:50:45.904Z,1010.9
2019-01-17T11:51:45.896Z,1010.88
2019-01-17T11:52:45.886Z,1010.86
2019-01-17T11:53:45.877Z,1010.88
2019-01-17T11:54:45.868Z,1010.76
2019-01-17T11:55:45.859Z,1010.81
2019-01-17T11:56:45.849Z,1010.76
2019-01-17T11:57:45.841Z,1010.77
2019-01-17T11:58:45.835Z,1010.84
2019-01-17T11:59:45.857Z,1010.81
2019-01-17T12:00:45.812Z,1010.8
2019-01-17T12:01:45.803Z,1010.91
2019-01-17T12:02:45.795Z,1010.95
2019-01-17T12:03:45.786Z,1010.97
2019-01-17T12:04:45.778Z,1010.94
2019-01-17T12:05:45.769Z,1010.92
2019-01-17T12:06:45.758Z,1010.9
2019-01-17T12:07:46.185Z,1010.94
2019-01-17T12:08:45.743Z,1010.86